createdAt,value
2022-07-31T00:00:30.429Z,101179.25
2022-07-31T00:02:59.391Z,101189.38
2022-07-31T00:05:28.243Z,101183.50
2022-07-31T00:07:57.039Z,101175.13
2022-07-31T00:10:25.408Z,101180.59
2022-07-31T00:12:54.259Z,101172.00
2022-07-31T00:15:24.718Z,101171.50
2022-07-31T00:17:53.798Z,101165.47
2022-07-31T00:20:22.659Z,101180.78
2022-07-31T00:22:51.411Z,101171.41
2022-07-31T00:25:20.220Z,101176.88
2022-07-31T00:27:48.503Z,101175.22
2022-07-31T00:30:17.854Z,101178.47
2022-07-31T00:32:48.968Z,101176.22
2022-07-31T00:35:20.523Z,101174.09
2022-07-31T00:37:49.431Z,101180.69
2022-07-31T00:40:18.948Z,101183.94
2022-07-31T00:42:47.513Z,101180.44
2022-07-31T00:45:15.995Z,101186.03
2022-07-31T00:47:44.578Z,101193.03
2022-07-31T00:50:29.834Z,101191.53
2022-07-31T00:52:58.473Z,101193.47
2022-07-31T00:55:28.760Z,101194.75
2022-07-31T00:57:57.152Z,101189.84
2022-07-31T01:00:25.811Z,101189.41
2022-07-31T01:02:55.506Z,101188.97
2022-07-31T01:05:26.000Z,101187.88
2022-07-31T01:07:55.279Z,101191.22
2022-07-31T01:10:44.243Z,101188.88
2022-07-31T01:13:18.804Z,101194.88
2022-07-31T01:15:48.237Z,101188.97
2022-07-31T01:18:18.953Z,101193.63
2022-07-31T01:20:52.049Z,101188.28
2022-07-31T01:23:58.893Z,101193.34
2022-07-31T01:26:42.657Z,101200.78
2022-07-31T01:29:29.383Z,101191.78
2022-07-31T01:32:04.238Z,101193.19
2022-07-31T01:34:45.062Z,101195.09
2022-07-31T01:37:20.951Z,101196.63
2022-07-31T01:39:54.235Z,101202.91
2022-07-31T01:42:25.174Z,101205.31
2022-07-31T01:44:58.620Z,101202.91
2022-07-31T01:47:29.381Z,101198.16
2022-07-31T01:49:59.838Z,101210.91
2022-07-31T01:52:31.436Z,101219.72
2022-07-31T01:55:02.411Z,101215.22
2022-07-31T01:57:32.981Z,101209.50
2022-07-31T02:00:11.401Z,101215.94
2022-07-31T02:03:01.551Z,101212.28
2022-07-31T02:05:39.962Z,101218.75
2022-07-31T02:08:10.064Z,101222.34
2022-07-31T02:10:40.049Z,101220.09
2022-07-31T02:13:08.961Z,101225.41
2022-07-31T02:15:40.085Z,101224.16
2022-07-31T02:18:11.416Z,101222.28
2022-07-31T02:20:43.295Z,101215.97
2022-07-31T02:23:12.388Z,101220.47
2022-07-31T02:25:43.053Z,101229.16
2022-07-31T02:28:17.186Z,101223.69
2022-07-31T02:30:49.057Z,101231.34
2022-07-31T02:33:23.189Z,101223.78
2022-07-31T02:35:56.478Z,101222.19
2022-07-31T02:38:27.917Z,101225.44
2022-07-31T02:41:01.800Z,101218.47
2022-07-31T02:43:32.953Z,101229.16
2022-07-31T02:46:16.611Z,101221.28
2022-07-31T02:48:46.053Z,101221.34
2022-07-31T02:51:15.045Z,101218.41
2022-07-31T02:53:43.912Z,101226.09
2022-07-31T02:56:12.936Z,101230.44
2022-07-31T02:58:42.293Z,101222.13
2022-07-31T03:01:12.082Z,101221.41
2022-07-31T03:03:40.944Z,101229.81
2022-07-31T03:06:09.625Z,101236.13
2022-07-31T03:08:39.199Z,101233.91
2022-07-31T03:11:07.918Z,101237.00
2022-07-31T03:13:38.558Z,101233.06
2022-07-31T03:16:08.727Z,101240.03
2022-07-31T03:18:39.388Z,101243.09
2022-07-31T03:21:12.441Z,101238.16
2022-07-31T03:23:42.018Z,101239.84
2022-07-31T03:26:10.466Z,101251.28
2022-07-31T03:28:39.617Z,101258.00
2022-07-31T03:31:09.271Z,101252.16
2022-07-31T03:33:39.081Z,101259.16
2022-07-31T03:36:10.853Z,101255.34
2022-07-31T03:38:43.168Z,101253.53
2022-07-31T03:41:13.229Z,101253.09
2022-07-31T03:43:47.919Z,101248.06
2022-07-31T03:46:20.410Z,101247.03
2022-07-31T03:48:53.012Z,101252.75
2022-07-31T03:51:22.643Z,101252.75
2022-07-31T03:53:52.100Z,101254.63
2022-07-31T03:56:21.278Z,101265.25
2022-07-31T03:58:52.285Z,101266.63
2022-07-31T04:01:22.281Z,101266.22
2022-07-31T04:04:01.501Z,101259.91
2022-07-31T04:06:29.844Z,101262.56
2022-07-31T04:08:58.501Z,101264.94
2022-07-31T04:11:30.142Z,101275.50
2022-07-31T04:13:59.689Z,101272.38
2022-07-31T04:16:30.401Z,101274.66
2022-07-31T04:19:00.363Z,101282.25
2022-07-31T04:21:29.291Z,101282.69
2022-07-31T04:23:58.140Z,101291.38
2022-07-31T04:26:26.782Z,101283.38
2022-07-31T04:28:55.549Z,101287.47
2022-07-31T04:31:24.004Z,101293.91
2022-07-31T04:33:56.841Z,101289.09
2022-07-31T04:36:29.139Z,101291.63
2022-07-31T04:38:59.931Z,101294.28
2022-07-31T04:41:29.341Z,101304.28
2022-07-31T04:44:00.129Z,101306.69
2022-07-31T04:46:29.015Z,101310.88
2022-07-31T04:48:57.634Z,101314.66
2022-07-31T04:51:27.973Z,101320.09
2022-07-31T04:53:56.693Z,101322.50
2022-07-31T04:56:37.879Z,101321.91
2022-07-31T04:59:09.295Z,101323.16
2022-07-31T05:01:38.400Z,101326.06
2022-07-31T05:04:08.479Z,101330.16
2022-07-31T05:06:41.503Z,101326.06
2022-07-31T05:09:18.470Z,101334.31
2022-07-31T05:11:48.850Z,101331.00
2022-07-31T05:14:21.011Z,101332.06
2022-07-31T05:16:50.092Z,101336.31
2022-07-31T05:19:20.071Z,101339.78
2022-07-31T05:21:53.829Z,101338.13
2022-07-31T05:24:33.181Z,101337.19
2022-07-31T05:27:03.867Z,101338.88
2022-07-31T05:29:33.543Z,101331.97
2022-07-31T05:32:02.803Z,101339.59
2022-07-31T05:34:31.749Z,101345.53
2022-07-31T05:37:14.267Z,101341.41
2022-07-31T05:39:43.831Z,101343.81
2022-07-31T05:42:13.793Z,101349.75
2022-07-31T05:44:43.306Z,101353.34
2022-07-31T05:47:11.829Z,101354.91
2022-07-31T05:49:41.536Z,101356.34
2022-07-31T05:52:12.296Z,101369.38
2022-07-31T05:54:42.971Z,101374.34
2022-07-31T05:57:13.422Z,101384.88
2022-07-31T06:00:04.041Z,101385.69
2022-07-31T06:02:33.745Z,101390.41
2022-07-31T06:05:02.884Z,101389.31
2022-07-31T06:07:34.261Z,101395.84
2022-07-31T06:10:04.107Z,101404.19
2022-07-31T06:12:33.525Z,101401.44
2022-07-31T06:15:02.933Z,101403.72
2022-07-31T06:17:44.091Z,101410.97
2022-07-31T06:20:14.407Z,101407.09
2022-07-31T06:22:45.646Z,101405.66
2022-07-31T06:25:15.258Z,101407.69
2022-07-31T06:27:47.365Z,101409.28
2022-07-31T06:30:24.874Z,101412.06
2022-07-31T06:32:56.656Z,101413.00
2022-07-31T06:35:25.279Z,101415.44
2022-07-31T06:37:56.110Z,101421.97
2022-07-31T06:40:25.662Z,101420.38
2022-07-31T06:42:55.018Z,101423.66
2022-07-31T06:45:48.508Z,101419.78
2022-07-31T06:48:17.189Z,101423.31
2022-07-31T06:50:47.446Z,101420.88
2022-07-31T06:53:18.177Z,101429.09
2022-07-31T06:55:46.670Z,101420.97
2022-07-31T06:58:16.408Z,101426.94
2022-07-31T07:00:45.781Z,101422.31
2022-07-31T07:03:14.641Z,101417.94
2022-07-31T07:05:45.467Z,101423.72
2022-07-31T07:08:14.007Z,101422.97
2022-07-31T07:10:43.986Z,101422.00
2022-07-31T07:13:12.608Z,101428.94
2022-07-31T07:15:41.136Z,101432.06
2022-07-31T07:18:09.485Z,101438.81
2022-07-31T07:20:38.120Z,101441.88
2022-07-31T07:23:06.735Z,101446.03
2022-07-31T07:25:35.279Z,101442.50
2022-07-31T07:28:06.153Z,101441.28
2022-07-31T07:30:37.743Z,101445.63
2022-07-31T07:33:07.868Z,101447.94
2022-07-31T07:35:36.895Z,101447.22
2022-07-31T07:38:05.480Z,101446.47
2022-07-31T07:40:34.840Z,101441.97
2022-07-31T07:43:05.220Z,101452.16
2022-07-31T07:45:35.170Z,101451.72
2022-07-31T07:48:06.110Z,101455.53
2022-07-31T07:50:35.632Z,101455.81
2022-07-31T07:53:04.436Z,101456.50
2022-07-31T07:55:37.546Z,101458.84
2022-07-31T07:58:11.906Z,101460.28
2022-07-31T08:00:40.982Z,101457.03
2022-07-31T08:03:48.353Z,101461.31
2022-07-31T08:05:57.909Z,101464.50
2022-07-31T08:08:26.427Z,101460.88
2022-07-31T08:10:55.073Z,101473.44
2022-07-31T08:13:27.968Z,101469.84
2022-07-31T08:15:56.909Z,101469.56
2022-07-31T08:18:27.264Z,101473.19
2022-07-31T08:20:57.441Z,101466.50
2022-07-31T08:23:28.153Z,101474.69
2022-07-31T08:25:56.852Z,101464.97
2022-07-31T08:28:29.879Z,101473.19
2022-07-31T08:30:59.552Z,101474.16
2022-07-31T08:33:29.249Z,101477.13
2022-07-31T08:35:58.889Z,101476.66
2022-07-31T08:38:29.092Z,101479.84
2022-07-31T08:40:58.247Z,101473.25
2022-07-31T08:44:01.687Z,101476.75
2022-07-31T08:46:25.455Z,101477.34
2022-07-31T08:48:59.739Z,101482.81
2022-07-31T08:51:51.278Z,101484.78
2022-07-31T08:54:26.302Z,101482.47
2022-07-31T08:57:04.423Z,101486.53
2022-07-31T08:59:42.437Z,101480.31
2022-07-31T09:02:21.483Z,101485.66
2022-07-31T09:04:52.936Z,101485.94
2022-07-31T09:07:24.244Z,101485.09
2022-07-31T09:09:53.807Z,101478.94
2022-07-31T09:12:33.261Z,101478.22
2022-07-31T09:15:22.100Z,101481.16
2022-07-31T09:17:54.431Z,101486.25
2022-07-31T09:20:24.666Z,101491.00
2022-07-31T09:23:05.513Z,101496.47
2022-07-31T09:25:39.697Z,101505.44
2022-07-31T09:28:19.070Z,101504.22
2022-07-31T09:30:57.991Z,101499.47
2022-07-31T09:33:43.685Z,101506.34
2022-07-31T09:36:15.001Z,101507.38
2022-07-31T09:38:45.332Z,101504.34
2022-07-31T09:41:53.668Z,101501.41
2022-07-31T09:44:12.558Z,101496.97
2022-07-31T09:46:46.126Z,101497.25
2022-07-31T09:49:19.120Z,101485.19
2022-07-31T09:52:03.953Z,101481.56
2022-07-31T09:54:34.283Z,101488.84
2022-07-31T09:57:17.210Z,101483.38
2022-07-31T10:00:17.985Z,101480.41
2022-07-31T10:02:51.934Z,101481.53
2022-07-31T10:05:28.536Z,101478.28
2022-07-31T10:08:06.541Z,101478.25
2022-07-31T10:10:48.684Z,101470.34
2022-07-31T10:13:22.258Z,101467.16
2022-07-31T10:15:54.795Z,101456.66
2022-07-31T10:18:36.447Z,101460.66
2022-07-31T10:21:08.494Z,101447.25
2022-07-31T10:23:42.615Z,101429.34
2022-07-31T10:26:12.072Z,101440.31
2022-07-31T10:28:42.815Z,101447.66
2022-07-31T10:31:13.918Z,101456.91
2022-07-31T10:33:45.193Z,101457.31
2022-07-31T10:36:21.888Z,101461.94
2022-07-31T10:39:02.901Z,101454.75
2022-07-31T10:41:48.119Z,101456.47
2022-07-31T10:44:25.356Z,101464.28
2022-07-31T10:46:53.801Z,101457.31
2022-07-31T10:49:40.429Z,101456.34
2022-07-31T10:52:09.122Z,101459.16
2022-07-31T10:54:42.149Z,101462.06
2022-07-31T10:57:23.503Z,101472.31
2022-07-31T10:59:54.304Z,101465.22
2022-07-31T11:02:30.120Z,101475.00
2022-07-31T11:05:13.448Z,101477.41
2022-07-31T11:07:42.739Z,101482.88
2022-07-31T11:10:18.245Z,101481.53
2022-07-31T11:12:48.037Z,101473.09
2022-07-31T11:15:22.782Z,101476.53
2022-07-31T11:18:21.122Z,101472.31
2022-07-31T11:20:47.033Z,101465.44
2022-07-31T11:23:17.887Z,101465.31
2022-07-31T11:25:48.455Z,101459.03
2022-07-31T11:28:23.938Z,101454.28
2022-07-31T11:30:55.254Z,101448.63
2022-07-31T11:33:39.542Z,101453.66
2022-07-31T11:36:13.929Z,101445.69
2022-07-31T11:38:47.019Z,101447.22
2022-07-31T11:41:22.007Z,101436.66
2022-07-31T11:43:55.015Z,101442.56
2022-07-31T11:46:30.775Z,101443.66
2022-07-31T11:49:01.786Z,101428.50
2022-07-31T11:51:34.262Z,101421.53
2022-07-31T11:54:10.056Z,101415.41
2022-07-31T11:56:39.556Z,101419.72
2022-07-31T11:59:09.528Z,101419.09
2022-07-31T12:02:05.301Z,101407.28
2022-07-31T12:04:42.997Z,101394.22
2022-07-31T12:07:20.184Z,101402.16
2022-07-31T12:10:02.261Z,101396.16
2022-07-31T12:12:32.926Z,101378.91
2022-07-31T12:15:03.030Z,101377.28
2022-07-31T12:17:40.345Z,101390.03
2022-07-31T12:20:21.596Z,101387.66
2022-07-31T12:23:01.464Z,101393.72
2022-07-31T12:25:53.799Z,101393.97
2022-07-31T12:28:23.515Z,101400.28
2022-07-31T12:31:01.077Z,101407.47
2022-07-31T12:33:29.938Z,101403.00
2022-07-31T12:35:58.425Z,101415.94
2022-07-31T12:38:41.242Z,101409.38
2022-07-31T12:41:15.361Z,101414.63
2022-07-31T12:43:51.702Z,101412.00
2022-07-31T12:46:24.379Z,101419.94
2022-07-31T12:48:54.101Z,101413.09
2022-07-31T12:51:44.777Z,101398.06
2022-07-31T12:54:14.612Z,101401.44
2022-07-31T12:56:45.582Z,101398.34
2022-07-31T12:59:14.318Z,101399.66
2022-07-31T13:01:43.599Z,101403.34
2022-07-31T13:04:18.859Z,101403.84
2022-07-31T13:06:52.517Z,101399.31
2022-07-31T13:09:23.080Z,101402.00
2022-07-31T13:11:59.915Z,101401.78
2022-07-31T13:14:36.744Z,101405.44
2022-07-31T13:17:07.848Z,101395.47
2022-07-31T13:19:38.373Z,101398.09
2022-07-31T13:22:06.987Z,101404.53
2022-07-31T13:24:38.157Z,101404.59
2022-07-31T13:27:08.555Z,101404.16
2022-07-31T13:29:38.124Z,101398.88
2022-07-31T13:32:08.912Z,101400.09
2022-07-31T13:34:40.628Z,101401.78
2022-07-31T13:37:09.553Z,101397.41
2022-07-31T13:39:39.543Z,101408.81
2022-07-31T13:42:08.950Z,101412.31
2022-07-31T13:44:38.231Z,101406.13
2022-07-31T13:47:13.087Z,101396.56
2022-07-31T13:49:43.626Z,101393.88
2022-07-31T13:52:14.494Z,101393.09
2022-07-31T13:54:44.704Z,101399.25
2022-07-31T13:57:15.097Z,101411.53
2022-07-31T13:59:45.725Z,101424.03
2022-07-31T14:02:14.552Z,101432.78
2022-07-31T14:04:43.521Z,101438.56
2022-07-31T14:07:12.905Z,101442.00
2022-07-31T14:09:47.012Z,101442.28
2022-07-31T14:12:27.372Z,101435.88
2022-07-31T14:14:55.877Z,101428.47
2022-07-31T14:17:24.411Z,101434.13
2022-07-31T14:19:53.325Z,101425.31
2022-07-31T14:22:23.978Z,101432.00
2022-07-31T14:24:53.625Z,101429.66
2022-07-31T14:27:22.337Z,101425.78
2022-07-31T14:29:54.600Z,101422.59
2022-07-31T14:32:25.424Z,101418.72
2022-07-31T14:35:08.062Z,101413.69
2022-07-31T14:37:39.352Z,101410.31
2022-07-31T14:40:11.491Z,101406.59
2022-07-31T14:42:42.262Z,101410.88
2022-07-31T14:45:15.696Z,101411.13
2022-07-31T14:47:47.150Z,101398.97
2022-07-31T14:50:24.600Z,101383.94
2022-07-31T14:52:53.299Z,101390.47
2022-07-31T14:55:23.504Z,101382.03
2022-07-31T14:57:52.405Z,101373.69
2022-07-31T15:00:22.933Z,101372.22
2022-07-31T15:02:53.500Z,101369.53
2022-07-31T15:06:39.970Z,101366.66
2022-07-31T15:08:10.562Z,101362.00
2022-07-31T15:10:39.532Z,101367.03
2022-07-31T15:13:10.480Z,101382.97
2022-07-31T15:15:40.461Z,101373.34
2022-07-31T15:18:09.203Z,101384.97
2022-07-31T15:20:39.509Z,101387.31
2022-07-31T15:23:08.348Z,101382.94
2022-07-31T15:25:39.144Z,101395.56
2022-07-31T15:28:07.858Z,101390.00
2022-07-31T15:30:39.894Z,101397.88
2022-07-31T15:33:08.465Z,101388.84
2022-07-31T15:35:37.166Z,101393.53
2022-07-31T15:38:07.767Z,101387.63
2022-07-31T15:40:36.525Z,101378.00
2022-07-31T15:43:04.996Z,101386.22
2022-07-31T15:45:34.864Z,101377.38
2022-07-31T15:48:09.848Z,101384.78
2022-07-31T15:50:39.190Z,101379.06
2022-07-31T15:53:10.206Z,101372.44
2022-07-31T15:55:39.099Z,101362.84
2022-07-31T15:58:07.619Z,101372.56
2022-07-31T16:00:36.691Z,101372.69
2022-07-31T16:03:06.941Z,101384.50
2022-07-31T16:05:38.984Z,101389.06
2022-07-31T16:08:29.262Z,101383.75
2022-07-31T16:10:59.227Z,101381.81
2022-07-31T16:13:28.212Z,101385.00
2022-07-31T16:16:07.093Z,101369.84
2022-07-31T16:18:38.564Z,101363.59
2022-07-31T16:21:09.065Z,101358.06
2022-07-31T16:23:37.588Z,101363.25
2022-07-31T16:26:09.129Z,101368.66
2022-07-31T16:28:39.685Z,101370.84
2022-07-31T16:31:09.537Z,101358.81
2022-07-31T16:33:40.412Z,101373.63
2022-07-31T16:36:10.369Z,101378.22
2022-07-31T16:38:41.211Z,101394.47
2022-07-31T16:41:11.034Z,101398.88
2022-07-31T16:43:49.594Z,101400.81
2022-07-31T16:46:19.972Z,101397.78
2022-07-31T16:48:50.026Z,101391.09
2022-07-31T16:51:19.548Z,101396.00
2022-07-31T16:54:14.562Z,101403.78
2022-07-31T16:56:41.734Z,101402.22
2022-07-31T16:59:10.155Z,101404.88
2022-07-31T17:01:53.954Z,101407.66
2022-07-31T17:04:29.103Z,101415.31
2022-07-31T17:07:06.195Z,101415.38
2022-07-31T17:09:35.038Z,101414.84
2022-07-31T17:12:09.913Z,101407.41
2022-07-31T17:14:39.306Z,101398.50
2022-07-31T17:17:07.935Z,101396.59
2022-07-31T17:19:45.476Z,101402.69
2022-07-31T17:22:18.041Z,101406.50
2022-07-31T17:24:51.897Z,101413.38
2022-07-31T17:27:21.857Z,101409.97
2022-07-31T17:29:51.508Z,101412.50
2022-07-31T17:32:26.483Z,101416.38
2022-07-31T17:35:04.904Z,101416.22
2022-07-31T17:37:33.259Z,101420.03
2022-07-31T17:40:01.940Z,101424.88
2022-07-31T17:42:35.743Z,101423.53
2022-07-31T17:45:06.684Z,101424.25
2022-07-31T17:47:41.977Z,101421.31
2022-07-31T17:50:27.640Z,101422.44
2022-07-31T17:52:57.544Z,101419.34
2022-07-31T17:55:27.188Z,101417.03
2022-07-31T17:57:56.093Z,101421.06
2022-07-31T18:00:27.277Z,101416.53
2022-07-31T18:03:03.098Z,101411.66
2022-07-31T18:05:43.652Z,101406.72
2022-07-31T18:08:20.334Z,101397.34
2022-07-31T18:10:59.068Z,101399.31
2022-07-31T18:13:28.414Z,101395.69
2022-07-31T18:15:56.849Z,101389.44
2022-07-31T18:18:26.529Z,101398.09
2022-07-31T18:20:57.641Z,101395.13
2022-07-31T18:23:29.603Z,101396.66
2022-07-31T18:26:01.472Z,101398.75
2022-07-31T18:28:32.994Z,101398.38
2022-07-31T18:31:02.553Z,101396.06
2022-07-31T18:33:34.976Z,101399.72
2022-07-31T18:36:05.483Z,101405.53
2022-07-31T18:38:33.947Z,101405.47
2022-07-31T18:41:02.377Z,101410.00
2022-07-31T18:43:32.075Z,101404.28
2022-07-31T18:46:01.366Z,101410.03
2022-07-31T18:48:30.636Z,101415.69
2022-07-31T18:51:04.727Z,101429.81
2022-07-31T18:53:34.930Z,101425.94
2022-07-31T18:56:04.707Z,101426.66
2022-07-31T18:58:33.476Z,101439.13
2022-07-31T19:01:04.197Z,101435.44
2022-07-31T19:03:32.941Z,101430.25
2022-07-31T19:06:02.878Z,101425.19
2022-07-31T19:08:52.821Z,101428.13
2022-07-31T19:11:29.406Z,101432.03
2022-07-31T19:13:58.099Z,101429.50
2022-07-31T19:16:28.727Z,101431.72
2022-07-31T19:18:58.811Z,101440.97
2022-07-31T19:21:41.494Z,101443.47
2022-07-31T19:24:13.982Z,101444.84
2022-07-31T19:26:43.418Z,101436.53
2022-07-31T19:29:13.040Z,101439.31
2022-07-31T19:31:41.651Z,101433.88
2022-07-31T19:34:10.149Z,101426.38
2022-07-31T19:36:44.169Z,101430.28
2022-07-31T19:39:16.957Z,101423.38
2022-07-31T19:42:11.540Z,101419.03
2022-07-31T19:44:34.700Z,101426.16
2022-07-31T19:47:04.362Z,101422.78
2022-07-31T19:49:38.145Z,101428.97
2022-07-31T19:52:13.506Z,101425.50
2022-07-31T19:54:43.724Z,101428.63
2022-07-31T19:57:18.304Z,101427.00
2022-07-31T19:59:55.034Z,101427.56
2022-07-31T20:02:23.520Z,101440.09
2022-07-31T20:04:56.406Z,101438.72
2022-07-31T20:07:32.765Z,101442.69
2022-07-31T20:10:03.325Z,101446.28
2022-07-31T20:12:46.181Z,101449.81
2022-07-31T20:15:16.768Z,101453.06
2022-07-31T20:17:51.609Z,101451.78
2022-07-31T20:20:20.087Z,101458.50
2022-07-31T20:22:54.608Z,101466.97
2022-07-31T20:25:24.566Z,101466.72
2022-07-31T20:27:53.025Z,101481.47
2022-07-31T20:30:25.240Z,101476.56
2022-07-31T20:32:56.025Z,101465.41
2022-07-31T20:35:33.104Z,101465.72
2022-07-31T20:38:24.338Z,101471.34
2022-07-31T20:40:56.274Z,101470.25
2022-07-31T20:43:32.137Z,101471.41
2022-07-31T20:46:02.311Z,101470.97
2022-07-31T20:48:33.110Z,101471.81
2022-07-31T20:51:20.615Z,101470.84
2022-07-31T20:53:59.716Z,101468.00
2022-07-31T20:56:30.281Z,101472.81
2022-07-31T20:59:08.959Z,101477.31
2022-07-31T21:01:42.944Z,101486.00
2022-07-31T21:04:13.754Z,101485.72
2022-07-31T21:06:43.665Z,101490.06
2022-07-31T21:09:14.085Z,101481.91
2022-07-31T21:11:45.320Z,101491.75
2022-07-31T21:14:20.662Z,101490.22
2022-07-31T21:16:50.937Z,101493.19
2022-07-31T21:19:20.063Z,101492.50
2022-07-31T21:21:48.760Z,101507.53
2022-07-31T21:24:18.585Z,101491.63
2022-07-31T21:27:07.190Z,101487.56
2022-07-31T21:29:44.900Z,101476.59
2022-07-31T21:32:17.141Z,101487.44
2022-07-31T21:34:46.490Z,101493.03
2022-07-31T21:37:16.116Z,101488.69
2022-07-31T21:39:45.148Z,101497.97
2022-07-31T21:42:17.614Z,101484.34
2022-07-31T21:44:58.043Z,101494.75
2022-07-31T21:47:52.953Z,101505.00
2022-07-31T21:50:33.990Z,101511.59
2022-07-31T21:53:19.087Z,101506.69
2022-07-31T21:56:01.454Z,101502.31
2022-07-31T21:58:32.839Z,101505.41
2022-07-31T22:01:02.423Z,101497.69
2022-07-31T22:03:30.737Z,101500.38
2022-07-31T22:06:16.850Z,101497.28
2022-07-31T22:08:46.824Z,101502.47
2022-07-31T22:11:21.860Z,101502.75
2022-07-31T22:13:52.667Z,101505.69
2022-07-31T22:16:23.449Z,101507.66
2022-07-31T22:18:59.459Z,101499.25
2022-07-31T22:21:39.115Z,101499.09
2022-07-31T22:24:09.339Z,101499.25
2022-07-31T22:27:01.329Z,101498.53
2022-07-31T22:29:41.432Z,101502.91
2022-07-31T22:32:11.667Z,101492.22
2022-07-31T22:34:47.852Z,101491.66
2022-07-31T22:37:17.571Z,101496.25
2022-07-31T22:39:49.663Z,101492.06
2022-07-31T22:42:18.226Z,101495.38
2022-07-31T22:44:48.950Z,101501.25
2022-07-31T22:47:18.100Z,101499.41
2022-07-31T22:49:47.964Z,101498.84
2022-07-31T22:52:18.846Z,101492.34
2022-07-31T22:54:47.557Z,101495.56
2022-07-31T22:57:19.915Z,101498.63
2022-07-31T22:59:55.027Z,101499.31
2022-07-31T23:02:34.187Z,101499.00
2022-07-31T23:05:03.291Z,101490.44
2022-07-31T23:07:33.718Z,101493.47
2022-07-31T23:10:05.439Z,101485.28
2022-07-31T23:12:36.200Z,101496.47
2022-07-31T23:15:07.358Z,101500.81
2022-07-31T23:17:42.160Z,101499.19
2022-07-31T23:20:13.213Z,101512.78
2022-07-31T23:22:46.760Z,101519.94
2022-07-31T23:25:16.230Z,101515.94
2022-07-31T23:27:49.837Z,101513.19
2022-07-31T23:30:19.842Z,101501.97
2022-07-31T23:32:55.647Z,101503.91
2022-07-31T23:35:24.182Z,101515.66
2022-07-31T23:37:55.113Z,101514.50
2022-07-31T23:40:29.610Z,101515.34
2022-07-31T23:43:02.998Z,101502.16
2022-07-31T23:45:35.134Z,101501.72
2022-07-31T23:48:04.547Z,101512.75
2022-07-31T23:50:34.517Z,101509.88
2022-07-31T23:53:03.216Z,101517.41
2022-07-31T23:55:31.961Z,101510.03
2022-07-31T23:58:06.874Z,101513.28
